createdAt,value
2019-01-14T00:01:06.639Z,97518.33
2019-01-14T00:03:34.288Z,97524.89
2019-01-14T00:06:10.086Z,97517.45
2019-01-14T00:08:34.089Z,97537.47
2019-01-14T00:11:02.433Z,97539.78
2019-01-14T00:13:30.388Z,97540.45
2019-01-14T00:15:59.263Z,97545.06
2019-01-14T00:18:27.325Z,97545.06
2019-01-14T00:20:58.358Z,97547.44
2019-01-14T00:23:26.216Z,97544.83
2019-01-14T00:25:54.067Z,97544.83
2019-01-14T00:28:24.674Z,97550.45
2019-01-14T00:30:52.363Z,97550.45
2019-01-14T00:33:20.066Z,97561.44
2019-01-14T00:35:48.841Z,97568.39
2019-01-14T00:38:19.596Z,97563.34
2019-01-14T00:40:47.250Z,97585.93
2019-01-14T00:43:14.937Z,97581.02
2019-01-14T00:45:42.655Z,97581.59
2019-01-14T00:48:13.426Z,97594.69
2019-01-14T00:50:41.207Z,97585.73
2019-01-14T00:53:09.011Z,97585.73
2019-01-14T00:55:37.218Z,97603.59
2019-01-14T00:58:07.958Z,97602.28
2019-01-14T01:00:35.854Z,97603.73
2019-01-14T01:03:06.181Z,97603.73
2019-01-14T01:05:35.205Z,97612.62
2019-01-14T01:08:03.013Z,97636.03
2019-01-14T01:10:30.934Z,97636.03
2019-01-14T01:12:58.519Z,97660.50
2019-01-14T01:15:26.569Z,97660.50
2019-01-14T01:17:54.945Z,97688.33
2019-01-14T01:20:23.094Z,97685.22
2019-01-14T01:22:50.995Z,97685.22
2019-01-14T01:25:20.977Z,97694.23
2019-01-14T01:27:48.979Z,97736.49
2019-01-14T01:30:17.980Z,97736.49
2019-01-14T01:32:46.371Z,97652.63
2019-01-14T01:35:14.947Z,97730.84
2019-01-14T01:37:42.799Z,97743.64
2019-01-14T01:40:20.773Z,97733.12
2019-01-14T01:42:51.427Z,97733.16
2019-01-14T01:45:22.227Z,97675.77
2019-01-14T01:47:50.275Z,97682.56
2019-01-14T01:50:19.156Z,97760.45
2019-01-14T01:52:47.266Z,97771.34
2019-01-14T01:55:15.102Z,97762.05
2019-01-14T01:57:43.431Z,97761.80
2019-01-14T02:00:16.472Z,97773.11
2019-01-14T02:02:44.300Z,97767.91
2019-01-14T02:05:12.458Z,97769.88
2019-01-14T02:07:40.545Z,97774.28
2019-01-14T02:10:12.374Z,97779.06
2019-01-14T02:12:40.013Z,97769.72
2019-01-14T02:15:09.330Z,97781.70
2019-01-14T02:17:37.204Z,97783.67
2019-01-14T02:20:05.778Z,97794.99
2019-01-14T02:22:35.587Z,97803.00
2019-01-14T02:25:03.901Z,97801.20
2019-01-14T02:27:31.666Z,97808.86
2019-01-14T02:29:59.661Z,97814.31
2019-01-14T02:32:27.433Z,97818.01
2019-01-14T02:34:55.041Z,97822.61
2019-01-14T02:37:25.924Z,97840.52
2019-01-14T02:39:53.538Z,97836.25
2019-01-14T02:42:21.130Z,97842.03
2019-01-14T02:44:49.093Z,97849.28
2019-01-14T02:47:16.825Z,97838.72
2019-01-14T02:49:44.990Z,97855.83
2019-01-14T02:52:13.032Z,97863.25
2019-01-14T02:54:40.669Z,97872.14
2019-01-14T02:57:08.364Z,97869.95
2019-01-14T02:59:36.251Z,97881.02
2019-01-14T03:02:04.422Z,97880.22
2019-01-14T03:04:32.081Z,97890.25
2019-01-14T03:07:00.149Z,97890.89
2019-01-14T03:09:28.120Z,97916.97
2019-01-14T03:11:55.738Z,97893.39
2019-01-14T03:14:26.690Z,97907.45
2019-01-14T03:16:54.329Z,97907.10
2019-01-14T03:19:21.903Z,97915.98
2019-01-14T03:21:49.841Z,97921.68
2019-01-14T03:24:18.098Z,97924.78
2019-01-14T03:26:45.789Z,97923.56
2019-01-14T03:29:13.702Z,97945.08
2019-01-14T03:31:41.267Z,97950.52
2019-01-14T03:34:09.113Z,97959.88
2019-01-14T03:36:36.670Z,97972.37
2019-01-14T03:39:06.469Z,97978.08
2019-01-14T03:41:34.339Z,97974.83
2019-01-14T03:44:02.575Z,97978.06
2019-01-14T03:46:30.166Z,97981.32
2019-01-14T03:48:57.934Z,97996.86
2019-01-14T03:51:25.541Z,98000.94
2019-01-14T03:53:53.226Z,97999.81
2019-01-14T03:56:23.092Z,98014.31
2019-01-14T03:58:51.578Z,98007.25
2019-01-14T04:01:19.920Z,98023.91
2019-01-14T04:03:49.701Z,98039.91
2019-01-14T04:06:19.594Z,98037.41
2019-01-14T04:08:47.396Z,98045.85
2019-01-14T04:11:15.130Z,98039.91
2019-01-14T04:13:42.809Z,98043.60
2019-01-14T04:16:11.603Z,98066.30
2019-01-14T04:18:40.044Z,98066.98
2019-01-14T04:21:08.613Z,98068.34
2019-01-14T04:23:36.918Z,98094.33
2019-01-14T04:26:04.958Z,98094.27
2019-01-14T04:28:32.957Z,98096.11
2019-01-14T04:31:00.608Z,98091.55
2019-01-14T04:33:28.384Z,98111.16
2019-01-14T04:35:55.994Z,98109.70
2019-01-14T04:38:23.938Z,98120.36
2019-01-14T04:40:51.510Z,98128.95
2019-01-14T04:43:19.324Z,98133.99
2019-01-14T04:45:47.155Z,98137.16
2019-01-14T04:48:14.773Z,98155.34
2019-01-14T04:50:43.326Z,98166.28
2019-01-14T04:53:11.347Z,98166.92
2019-01-14T04:55:39.753Z,98173.08
2019-01-14T04:58:08.101Z,98177.07
2019-01-14T05:00:35.800Z,98186.61
2019-01-14T05:03:03.606Z,98182.21
2019-01-14T05:05:31.510Z,98194.06
2019-01-14T05:07:59.107Z,98211.05
2019-01-14T05:10:51.239Z,98206.06
2019-01-14T05:13:20.545Z,98210.55
2019-01-14T05:15:49.682Z,98204.80
2019-01-14T05:18:17.713Z,98214.95
2019-01-14T05:20:45.727Z,98208.09
2019-01-14T05:23:13.706Z,98215.59
2019-01-14T05:25:41.655Z,98211.25
2019-01-14T05:28:10.631Z,98217.52
2019-01-14T05:30:38.575Z,98228.17
2019-01-14T05:33:06.287Z,98221.54
2019-01-14T05:35:34.125Z,98217.40
2019-01-14T05:38:01.761Z,98213.61
2019-01-14T05:40:29.389Z,98218.97
2019-01-14T05:42:57.059Z,98217.47
2019-01-14T05:45:24.678Z,98139.30
2019-01-14T05:47:52.998Z,98220.20
2019-01-14T05:50:21.058Z,98217.47
2019-01-14T05:52:49.240Z,98219.36
2019-01-14T05:55:17.567Z,98225.36
2019-01-14T05:57:45.123Z,98228.67
2019-01-14T06:00:24.134Z,98236.13
2019-01-14T06:02:52.325Z,98234.18
2019-01-14T06:05:20.071Z,98232.47
2019-01-14T06:07:47.925Z,98232.23
2019-01-14T06:10:16.146Z,98248.64
2019-01-14T06:12:43.914Z,98249.72
2019-01-14T06:15:15.255Z,98241.52
2019-01-14T06:17:43.512Z,98248.39
2019-01-14T06:20:12.594Z,98248.89
2019-01-14T06:22:40.671Z,98245.77
2019-01-14T06:25:09.579Z,98176.22
2019-01-14T06:27:37.702Z,98268.91
2019-01-14T06:30:12.482Z,98262.53
2019-01-14T06:32:40.340Z,98258.98
2019-01-14T06:35:08.472Z,98274.75
2019-01-14T06:37:36.435Z,98276.09
2019-01-14T06:40:06.467Z,98278.22
2019-01-14T06:42:34.286Z,98294.51
2019-01-14T06:45:06.668Z,98285.64
2019-01-14T06:47:34.767Z,98300.55
2019-01-14T06:50:04.068Z,98297.83
2019-01-14T06:52:32.124Z,98309.52
2019-01-14T06:55:00.738Z,98308.70
2019-01-14T06:57:29.363Z,98326.19
2019-01-14T06:59:57.482Z,98320.80
2019-01-14T07:02:25.806Z,98317.22
2019-01-14T07:04:53.479Z,98314.72
2019-01-14T07:07:21.172Z,98325.68
2019-01-14T07:09:49.385Z,98328.16
2019-01-14T07:12:17.134Z,98329.26
2019-01-14T07:14:45.734Z,98324.63
2019-01-14T07:17:13.692Z,98325.41
2019-01-14T07:19:43.319Z,98325.56
2019-01-14T07:22:12.244Z,98320.22
2019-01-14T07:24:41.023Z,98319.05
2019-01-14T07:27:08.793Z,98318.95
2019-01-14T07:29:36.428Z,98327.79
2019-01-14T07:32:04.752Z,98323.86
2019-01-14T07:34:32.888Z,98328.05
2019-01-14T07:37:00.609Z,98325.62
2019-01-14T07:39:28.588Z,98326.25
2019-01-14T07:41:56.334Z,98328.14
2019-01-14T07:44:24.017Z,98338.31
2019-01-14T07:46:51.666Z,98334.81
2019-01-14T07:49:20.417Z,98347.62
2019-01-14T07:51:49.359Z,98347.72
2019-01-14T07:54:17.140Z,98350.02
2019-01-14T07:56:45.001Z,98350.75
2019-01-14T07:59:12.771Z,98359.63
2019-01-14T08:01:40.610Z,98364.73
2019-01-14T08:04:08.279Z,98367.56
2019-01-14T08:06:36.310Z,98368.86
2019-01-14T08:09:06.959Z,98370.26
2019-01-14T08:11:34.622Z,98381.67
2019-01-14T08:14:04.243Z,98301.98
2019-01-14T08:16:32.074Z,98388.73
2019-01-14T08:18:59.849Z,98387.30
2019-01-14T08:21:27.550Z,98381.27
2019-01-14T08:23:55.279Z,98381.50
2019-01-14T08:26:23.045Z,98392.27
2019-01-14T08:28:50.769Z,98399.17
2019-01-14T08:31:18.822Z,98392.80
2019-01-14T08:33:46.470Z,98405.81
2019-01-14T08:36:14.608Z,98399.00
2019-01-14T08:38:42.391Z,98401.02
2019-01-14T08:41:12.716Z,98398.69
2019-01-14T08:43:41.230Z,98401.81
2019-01-14T08:46:09.839Z,98404.91
2019-01-14T08:48:37.541Z,98404.91
2019-01-14T08:51:06.932Z,98410.33
2019-01-14T08:53:34.701Z,98408.41
2019-01-14T08:56:02.768Z,98395.96
2019-01-14T08:58:31.557Z,98395.69
2019-01-14T09:00:59.541Z,98411.40
2019-01-14T09:03:27.340Z,98410.86
2019-01-14T09:05:58.007Z,98430.95
2019-01-14T09:08:28.755Z,98427.70
2019-01-14T09:10:55.382Z,98427.70
2019-01-14T09:13:23.321Z,98424.19
2019-01-14T09:15:51.469Z,98434.41
2019-01-14T09:18:19.216Z,98419.55
2019-01-14T09:20:46.899Z,98425.16
2019-01-14T09:23:14.782Z,98444.27
2019-01-14T09:25:42.511Z,98444.27
2019-01-14T09:28:11.524Z,98385.83
2019-01-14T09:30:39.166Z,98449.19
2019-01-14T09:33:07.122Z,98451.15
2019-01-14T09:35:35.347Z,98453.86
2019-01-14T09:38:04.074Z,98453.86
2019-01-14T09:40:31.650Z,98448.45
2019-01-14T09:42:59.965Z,98448.45
2019-01-14T09:45:27.900Z,98466.36
2019-01-14T09:47:56.077Z,98472.00
2019-01-14T09:50:24.584Z,98472.00
2019-01-14T09:52:52.364Z,98471.09
2019-01-14T09:55:20.192Z,98474.02
2019-01-14T09:57:48.026Z,98474.02
2019-01-14T10:00:15.907Z,98462.44
2019-01-14T10:02:45.260Z,98458.58
2019-01-14T10:05:14.289Z,98458.58
2019-01-14T10:07:42.822Z,98476.46
2019-01-14T10:10:12.631Z,98471.09
2019-01-14T10:12:40.801Z,98470.59
2019-01-14T10:15:11.459Z,98470.59
2019-01-14T10:17:40.214Z,98464.73
2019-01-14T10:20:08.972Z,98458.88
2019-01-14T10:22:37.423Z,98515.32
2019-01-14T10:25:05.945Z,98515.32
2019-01-14T10:27:33.856Z,98544.18
2019-01-14T10:30:04.943Z,98531.05
2019-01-14T10:32:32.741Z,98550.97
2019-01-14T10:35:00.530Z,98546.66
2019-01-14T10:37:28.598Z,98571.97
2019-01-14T10:39:59.315Z,98551.41
2019-01-14T10:42:26.961Z,98562.48
2019-01-14T10:44:54.902Z,98583.16
2019-01-14T10:47:22.756Z,98561.07
2019-01-14T10:49:51.492Z,98562.77
2019-01-14T10:52:19.296Z,98583.95
2019-01-14T10:54:46.947Z,98576.95
2019-01-14T10:57:14.844Z,98569.73
2019-01-14T10:59:42.543Z,98564.22
2019-01-14T11:02:10.208Z,98575.83
2019-01-14T11:04:38.308Z,98579.47
2019-01-14T11:07:06.052Z,98585.17
2019-01-14T11:09:34.181Z,98578.14
2019-01-14T11:12:05.574Z,98576.75
2019-01-14T11:14:34.217Z,98581.24
2019-01-14T11:17:01.976Z,98575.97
2019-01-14T11:19:31.310Z,98576.66
2019-01-14T11:21:59.626Z,98570.64
2019-01-14T11:24:50.286Z,98571.22
2019-01-14T11:27:19.729Z,98578.58
2019-01-14T11:29:54.403Z,98576.53
2019-01-14T11:32:23.143Z,98592.64
2019-01-14T11:34:51.571Z,98586.02
2019-01-14T11:37:23.455Z,98601.13
2019-01-14T11:39:51.595Z,98612.34
2019-01-14T11:42:19.252Z,98595.24
2019-01-14T11:44:47.233Z,98592.03
2019-01-14T11:47:15.010Z,98589.55
2019-01-14T11:49:43.266Z,98594.25
2019-01-14T11:52:11.445Z,98586.45
2019-01-14T11:54:39.106Z,98605.33
2019-01-14T11:57:07.877Z,98602.23
2019-01-14T11:59:36.186Z,98602.92
2019-01-14T12:02:04.158Z,98597.22
2019-01-14T12:04:31.910Z,98597.83
2019-01-14T12:06:59.874Z,98595.24
2019-01-14T12:09:28.696Z,98603.42
2019-01-14T12:11:56.360Z,98608.23
2019-01-14T12:14:24.851Z,98595.85
2019-01-14T12:16:52.498Z,98616.04
2019-01-14T12:19:21.413Z,98616.84
2019-01-14T12:21:50.525Z,98629.42
2019-01-14T12:24:18.417Z,98633.02
2019-01-14T12:26:46.243Z,98644.21
2019-01-14T12:29:15.456Z,98637.89
2019-01-14T12:31:43.260Z,98633.86
2019-01-14T12:34:10.845Z,98630.66
2019-01-14T12:36:39.172Z,98637.95
2019-01-14T12:39:08.651Z,98636.66
2019-01-14T12:41:36.371Z,98638.16
2019-01-14T12:44:05.039Z,98631.50
2019-01-14T12:46:32.702Z,98641.77
2019-01-14T12:49:00.644Z,98645.69
2019-01-14T12:51:33.327Z,98662.69
2019-01-14T12:54:05.612Z,98662.93
2019-01-14T12:56:37.771Z,98660.04
2019-01-14T12:59:05.887Z,98651.20
2019-01-14T13:01:34.213Z,98655.05
2019-01-14T13:04:04.318Z,98639.63
2019-01-14T13:06:36.521Z,98661.93
2019-01-14T13:09:08.713Z,98666.03
2019-01-14T13:11:37.110Z,98665.22
2019-01-14T13:14:05.815Z,98659.55
2019-01-14T13:16:33.549Z,98651.64
2019-01-14T13:19:02.225Z,98656.16
2019-01-14T13:21:30.119Z,98657.04
2019-01-14T13:23:58.701Z,98655.12
2019-01-14T13:26:27.134Z,98647.77
2019-01-14T13:28:54.925Z,98642.87
2019-01-14T13:31:22.714Z,98655.23
2019-01-14T13:33:50.906Z,98655.23
2019-01-14T13:36:19.047Z,98664.03
2019-01-14T13:38:47.241Z,98664.03
2019-01-14T13:41:15.553Z,98676.88
2019-01-14T13:43:44.216Z,98665.84
2019-01-14T13:46:15.530Z,98665.75
2019-01-14T13:48:43.324Z,98681.16
2019-01-14T13:51:12.193Z,98688.03
2019-01-14T13:53:40.370Z,98690.45
2019-01-14T13:56:08.145Z,98695.26
2019-01-14T13:58:35.913Z,98692.95
2019-01-14T14:01:04.528Z,98704.45
2019-01-14T14:03:32.287Z,98714.34
2019-01-14T14:06:00.105Z,98720.53
2019-01-14T14:08:28.313Z,98711.11
2019-01-14T14:10:56.464Z,98713.59
2019-01-14T14:13:24.143Z,98724.77
2019-01-14T14:15:52.353Z,98722.77
2019-01-14T14:18:20.234Z,98732.45
2019-01-14T14:20:48.191Z,98753.08
2019-01-14T14:23:16.926Z,98759.78
2019-01-14T14:25:44.965Z,98766.91
2019-01-14T14:28:15.771Z,98771.53
2019-01-14T14:30:44.149Z,98774.56
2019-01-14T14:33:14.227Z,98764.73
2019-01-14T14:35:42.391Z,98771.47
2019-01-14T14:38:10.942Z,98774.21
2019-01-14T14:40:39.170Z,98780.66
2019-01-14T14:43:11.765Z,98777.66
2019-01-14T14:45:40.034Z,98789.62
2019-01-14T14:48:11.634Z,98787.77
2019-01-14T14:50:40.045Z,98792.03
2019-01-14T14:53:08.346Z,98790.16
2019-01-14T14:55:37.071Z,98799.86
2019-01-14T14:58:07.381Z,98812.31
2019-01-14T15:00:36.136Z,98813.88
2019-01-14T15:03:05.408Z,98822.33
2019-01-14T15:05:36.480Z,98817.58
2019-01-14T15:08:05.389Z,98819.90
2019-01-14T15:10:33.978Z,98841.84
2019-01-14T15:13:05.100Z,98843.28
2019-01-14T15:15:33.736Z,98848.20
2019-01-14T15:18:02.886Z,98843.28
2019-01-14T15:20:31.340Z,98849.31
2019-01-14T15:22:59.319Z,98860.88
2019-01-14T15:25:30.235Z,98876.50
2019-01-14T15:27:58.613Z,98889.66
2019-01-14T15:30:31.752Z,98881.64
2019-01-14T15:33:00.076Z,98884.55
2019-01-14T15:35:29.754Z,98888.76
2019-01-14T15:37:58.211Z,98859.23
2019-01-14T15:40:28.210Z,98907.00
2019-01-14T15:42:56.604Z,98897.62
2019-01-14T15:45:29.177Z,98910.72
2019-01-14T15:47:57.527Z,98894.87
2019-01-14T15:50:26.945Z,98930.80
2019-01-14T15:52:56.541Z,98931.75
2019-01-14T15:55:29.497Z,98931.68
2019-01-14T15:57:59.458Z,98947.70
2019-01-14T16:00:28.995Z,98954.53
2019-01-14T16:03:01.482Z,98961.64
2019-01-14T16:05:30.399Z,98969.94
2019-01-14T16:08:00.238Z,98973.53
2019-01-14T16:10:30.887Z,98964.05
2019-01-14T16:13:00.112Z,98983.16
2019-01-14T16:15:28.928Z,98976.86
2019-01-14T16:18:01.852Z,98976.57
2019-01-14T16:20:30.249Z,98981.38
2019-01-14T16:22:59.601Z,98982.84
2019-01-14T16:25:28.263Z,98993.36
2019-01-14T16:28:03.283Z,99006.65
2019-01-14T16:30:31.738Z,98993.41
2019-01-14T16:33:00.715Z,98997.58
2019-01-14T16:35:29.380Z,99010.31
2019-01-14T16:37:58.234Z,99013.27
2019-01-14T16:40:28.831Z,99012.97
2019-01-14T16:42:57.918Z,98930.75
2019-01-14T16:45:30.356Z,99015.56
2019-01-14T16:47:59.059Z,99025.63
2019-01-14T16:50:27.894Z,99023.70
2019-01-14T16:52:58.757Z,99032.44
2019-01-14T16:55:49.314Z,99039.02
2019-01-14T16:58:18.116Z,99039.56
2019-01-14T17:00:46.015Z,99032.00
2019-01-14T17:03:19.189Z,99044.47
2019-01-14T17:05:49.242Z,99038.32
2019-01-14T17:08:19.795Z,99057.78
2019-01-14T17:10:49.853Z,99081.09
2019-01-14T17:13:19.498Z,99075.75
2019-01-14T17:15:49.931Z,99065.48
2019-01-14T17:18:19.164Z,99067.59
2019-01-14T17:20:59.225Z,99086.03
2019-01-14T17:23:33.237Z,99094.29
2019-01-14T17:26:06.662Z,99077.70
2019-01-14T17:28:41.532Z,99097.15
2019-01-14T17:31:11.918Z,99095.89
2019-01-14T17:33:45.680Z,99103.49
2019-01-14T17:36:20.181Z,99108.22
2019-01-14T17:38:51.289Z,99096.21
2019-01-14T17:41:26.348Z,99109.16
2019-01-14T17:43:58.258Z,99113.52
2019-01-14T17:46:27.296Z,99114.23
2019-01-14T17:48:58.564Z,99125.23
2019-01-14T17:51:33.053Z,99123.94
2019-01-14T17:54:01.283Z,99127.66
2019-01-14T17:56:30.139Z,99137.00
2019-01-14T17:59:02.932Z,99127.95
2019-01-14T18:01:31.075Z,99127.14
2019-01-14T18:04:02.655Z,99134.06
2019-01-14T18:06:30.573Z,99136.33
2019-01-14T18:08:59.323Z,99142.28
2019-01-14T18:11:28.689Z,99146.39
2019-01-14T18:13:58.953Z,99149.67
2019-01-14T18:16:31.927Z,99162.23
2019-01-14T18:19:06.316Z,99154.61
2019-01-14T18:21:34.899Z,99160.08
2019-01-14T18:24:03.001Z,99162.58
2019-01-14T18:26:32.958Z,99166.09
2019-01-14T18:29:04.645Z,99179.17
2019-01-14T18:31:34.509Z,99184.95
2019-01-14T18:34:05.596Z,99186.84
2019-01-14T18:36:36.410Z,99194.22
2019-01-14T18:39:11.459Z,99195.45
2019-01-14T18:41:41.801Z,99202.17
2019-01-14T18:44:14.624Z,99204.75
2019-01-14T18:46:42.879Z,99208.59
2019-01-14T18:49:11.553Z,99211.61
2019-01-14T18:51:46.779Z,99203.66
2019-01-14T18:54:16.580Z,99210.95
2019-01-14T18:56:46.523Z,99224.20
2019-01-14T18:59:16.485Z,99235.22
2019-01-14T19:01:44.225Z,99231.29
2019-01-14T19:04:12.727Z,99230.53
2019-01-14T19:06:40.567Z,99241.05
2019-01-14T19:09:11.163Z,99243.97
2019-01-14T19:11:39.627Z,99252.89
2019-01-14T19:14:07.817Z,99246.09
2019-01-14T19:16:36.590Z,99247.98
2019-01-14T19:19:08.223Z,99249.60
2019-01-14T19:21:38.105Z,99259.66
2019-01-14T19:24:07.558Z,99263.96
2019-01-14T19:26:36.432Z,99255.41
2019-01-14T19:29:07.375Z,99255.38
2019-01-14T19:31:38.963Z,99263.23
2019-01-14T19:34:14.942Z,99266.92
2019-01-14T19:36:44.651Z,99268.41
2019-01-14T19:39:16.661Z,99270.05
2019-01-14T19:41:47.309Z,99272.39
2019-01-14T19:44:15.936Z,99280.28
2019-01-14T19:46:44.152Z,99274.35
2019-01-14T19:49:13.967Z,99277.50
2019-01-14T19:51:41.995Z,99279.33
2019-01-14T19:54:16.078Z,99288.36
2019-01-14T19:56:47.985Z,99290.19
2019-01-14T19:59:16.589Z,99293.44
2019-01-14T20:01:44.519Z,99298.94
2019-01-14T20:04:15.235Z,99290.64
2019-01-14T20:06:43.842Z,99291.45
2019-01-14T20:09:12.194Z,99299.27
2019-01-14T20:11:41.086Z,99300.93
2019-01-14T20:14:09.347Z,99298.62
2019-01-14T20:16:38.127Z,99302.63
2019-01-14T20:19:06.532Z,99294.53
2019-01-14T20:21:35.747Z,99294.15
2019-01-14T20:24:08.827Z,99305.48
2019-01-14T20:26:38.369Z,99303.88
2019-01-14T20:29:06.375Z,99307.92
2019-01-14T20:31:37.232Z,99316.69
2019-01-14T20:34:05.550Z,99315.11
2019-01-14T20:36:37.276Z,99318.39
2019-01-14T20:39:09.086Z,99312.94
2019-01-14T20:41:38.459Z,99328.38
2019-01-14T20:44:06.641Z,99316.27
2019-01-14T20:46:36.209Z,99325.95
2019-01-14T20:49:08.529Z,99332.92
2019-01-14T20:51:36.786Z,99329.31
2019-01-14T20:54:06.236Z,99325.25
2019-01-14T20:56:34.098Z,99318.41
2019-01-14T20:59:04.356Z,99323.58
2019-01-14T21:01:36.843Z,99329.10
2019-01-14T21:04:11.375Z,99333.48
2019-01-14T21:06:41.388Z,99337.70
2019-01-14T21:09:09.385Z,99330.56
2019-01-14T21:11:37.280Z,99340.89
2019-01-14T21:14:05.602Z,99330.80
2019-01-14T21:16:33.833Z,99341.92
2019-01-14T21:19:02.860Z,99344.52
2019-01-14T21:21:31.054Z,99335.45
2019-01-14T21:23:59.221Z,99339.39
2019-01-14T21:26:29.984Z,99325.77
2019-01-14T21:29:04.710Z,99330.47
2019-01-14T21:31:32.496Z,99337.92
2019-01-14T21:34:01.584Z,99341.65
2019-01-14T21:36:33.441Z,99342.96
2019-01-14T21:39:08.856Z,99346.48
2019-01-14T21:41:36.876Z,99335.93
2019-01-14T21:44:04.716Z,99332.13
2019-01-14T21:46:32.773Z,99333.05
2019-01-14T21:49:01.487Z,99343.09
2019-01-14T21:51:29.852Z,99264.82
2019-01-14T21:53:57.958Z,99349.86
2019-01-14T21:56:26.250Z,99347.27
2019-01-14T21:58:57.588Z,99346.93
2019-01-14T22:01:25.386Z,99341.91
2019-01-14T22:03:53.691Z,99347.79
2019-01-14T22:06:21.589Z,99347.67
2019-01-14T22:08:49.866Z,99350.59
2019-01-14T22:11:18.295Z,99342.08
2019-01-14T22:13:45.912Z,99347.83
2019-01-14T22:16:13.602Z,99353.74
2019-01-14T22:18:41.337Z,99356.17
2019-01-14T22:21:08.985Z,99362.98
2019-01-14T22:23:38.256Z,99359.74
2019-01-14T22:26:06.297Z,99360.75
2019-01-14T22:28:35.335Z,99367.20
2019-01-14T22:31:03.183Z,99346.81
2019-01-14T22:33:31.251Z,99365.61
2019-01-14T22:36:00.263Z,99359.45
2019-01-14T22:38:27.991Z,99360.84
2019-01-14T22:40:55.635Z,99359.30
2019-01-14T22:43:23.183Z,99361.77
2019-01-14T22:45:51.004Z,99367.97
2019-01-14T22:48:18.859Z,99362.27
2019-01-14T22:50:46.637Z,99364.85
2019-01-14T22:53:14.219Z,99367.73
2019-01-14T22:55:41.842Z,99368.99
2019-01-14T22:58:09.498Z,99370.57
2019-01-14T23:01:13.212Z,99369.27
2019-01-14T23:03:42.912Z,99376.73
2019-01-14T23:06:11.696Z,99379.97
2019-01-14T23:08:39.517Z,99388.25
2019-01-14T23:11:08.767Z,99382.73
2019-01-14T23:13:36.726Z,99385.77
2019-01-14T23:16:05.174Z,99391.92
2019-01-14T23:18:33.235Z,99393.47
2019-01-14T23:21:05.122Z,99400.97
2019-01-14T23:23:33.034Z,99407.50
2019-01-14T23:26:04.215Z,99398.30
2019-01-14T23:28:35.065Z,99398.13
2019-01-14T23:31:07.282Z,99403.33
2019-01-14T23:33:34.993Z,99399.10
2019-01-14T23:36:05.186Z,99412.00
2019-01-14T23:38:32.936Z,99417.51
2019-01-14T23:41:01.215Z,99409.03
2019-01-14T23:43:31.927Z,99404.22
2019-01-14T23:45:59.638Z,99401.78
2019-01-14T23:48:28.925Z,99392.25
2019-01-14T23:50:56.789Z,99395.45
2019-01-14T23:53:24.577Z,99385.77
2019-01-14T23:55:52.317Z,99387.72
2019-01-14T23:58:20.067Z,99396.76
